Terminal Aerodrome Forecast
Issued by NWS

Home | Current Version | Previous Version | Text Only | Print | Product List | Glossary On
Versions: 1 2 3 4 5 6 7 8 9 10 11 12 13 14 15 16 17 18 19
000
FTUS43 KPAH 291123 CCA
TAFCGI
TAF COR
KCGI 291123Z 2912/3012 17004KT P6SM SCT015 BKN200
      TEMPO 2913/2917 BKN015
     FM291700 20007KT P6SM BKN035 BKN100=

USA.gov is the U.S. government's official web portal to all federal, state and local government web resources and services.